Time;durP1;ratioP1;P1;durP2;ratioP2;P2;SDS_P1;SDS_P2;PMS_P1;PMS_P2;Temp;Humidity;BMP_temperature;BMP_pressure;BME280_temperature;BME280_humidity;BME280_pressure;Samples;Min_cycle;Max_cycle;Signal;HPM_P1;HPM_P2
2022/07/22 00:01:13;;;;;;;13.85;10.20;;;;;;;16.01;100.00;96918.34;10449467;28;20187;-74
2022/07/22 00:06:13;;;;;;;13.63;10.48;;;;;;;15.89;100.00;96917.19;10449030;28;20207;-74
2022/07/22 00:11:13;;;;;;;12.13;9.40;;;;;;;15.85;100.00;96910.66;10431343;28;20681;-73
2022/07/22 00:16:14;;;;;;;12.13;10.25;;;;;;;15.86;100.00;96921.03;10449444;28;20338;-73
2022/07/22 00:21:21;;;;;;;13.57;10.65;;;;;;;15.82;100.00;96909.19;10447179;28;20188;-73
2022/07/22 00:27:02;;;;;;;11.73;10.00;;;;;;;15.60;100.00;96921.47;10445620;28;20196;-74
2022/07/22 00:32:07;;;;;;;11.77;10.55;;;;;;;15.59;100.00;96925.13;10432224;28;20563;-74
2022/07/22 00:37:22;;;;;;;12.80;10.73;;;;;;;15.52;100.00;96925.03;10429841;28;20203;-74
2022/07/22 00:42:34;;;;;;;12.10;9.73;;;;;;;15.50;100.00;96929.69;10449800;28;20184;-74
2022/07/22 00:47:48;;;;;;;12.40;9.13;;;;;;;15.45;100.00;96918.84;10392582;28;20204;-73
2022/07/22 00:52:48;;;;;;;12.00;8.77;;;;;;;15.45;100.00;96928.56;10431724;28;20281;-73
2022/07/22 00:57:48;;;;;;;16.20;9.50;;;;;;;15.40;100.00;96936.25;10432448;28;20242;-73
2022/07/22 01:02:49;;;;;;;11.85;10.40;;;;;;;15.33;100.00;96936.97;10455016;28;20651;-73
2022/07/22 01:07:49;;;;;;;10.43;9.32;;;;;;;15.28;100.00;96928.78;10422232;28;20726;-73
2022/07/22 01:12:49;;;;;;;15.30;9.38;;;;;;;15.16;100.00;96925.75;10456428;28;20238;-73
2022/07/22 01:17:50;;;;;;;11.23;9.10;;;;;;;15.08;100.00;96925.00;10456327;28;20184;-74
2022/07/22 01:22:50;;;;;;;13.05;9.30;;;;;;;15.07;100.00;96923.34;10438429;28;20270;-73
2022/07/22 01:27:51;;;;;;;12.90;10.10;;;;;;;14.93;100.00;96923.16;10438347;28;20279;-73
2022/07/22 01:32:52;;;;;;;11.55;10.32;;;;;;;14.89;100.00;96926.34;10436313;28;20219;-73
2022/07/22 01:37:52;;;;;;;12.30;10.23;;;;;;;14.73;100.00;96927.28;10454878;28;20601;-73
2022/07/22 01:42:52;;;;;;;11.20;9.73;;;;;;;14.76;100.00;96940.97;10436084;28;20271;-73
2022/07/22 01:47:53;;;;;;;11.00;8.68;;;;;;;14.76;100.00;96934.84;10436483;28;20191;-73
2022/07/22 01:52:53;;;;;;;12.40;9.90;;;;;;;14.55;100.00;96938.94;10455005;28;20223;-73
2022/07/22 01:57:54;;;;;;;11.30;9.85;;;;;;;14.57;100.00;96941.41;10454513;28;20184;-73
2022/07/22 02:03:00;;;;;;;10.23;8.40;;;;;;;14.62;100.00;96939.06;10436602;28;20648;-73
2022/07/22 02:08:07;;;;;;;10.95;8.90;;;;;;;14.45;100.00;96941.78;10435940;28;20230;-73
2022/07/22 02:13:27;;;;;;;13.73;9.82;;;;;;;14.37;100.00;96936.56;10399430;28;20703;-73
2022/07/22 02:18:28;;;;;;;15.88;10.38;;;;;;;14.43;100.00;96940.34;10451657;28;20188;-73
2022/07/22 02:23:28;;;;;;;10.18;8.80;;;;;;;14.39;100.00;96939.84;10436267;28;20215;-73
2022/07/22 02:28:29;;;;;;;17.55;10.63;;;;;;;14.27;100.00;96934.19;10435852;28;20283;-73
2022/07/22 02:33:29;;;;;;;12.00;9.75;;;;;;;14.23;100.00;96932.06;10435646;28;20222;-73
2022/07/22 02:38:31;;;;;;;13.93;9.15;;;;;;;14.22;100.00;96941.75;10435451;28;20214;-73
2022/07/22 02:43:31;;;;;;;12.52;9.05;;;;;;;14.18;100.00;96940.50;10453588;28;20183;-74
2022/07/22 02:48:33;;;;;;;11.20;8.75;;;;;;;14.12;100.00;96938.56;10452352;28;20275;-73
2022/07/22 02:53:34;;;;;;;10.88;7.72;;;;;;;14.09;100.00;96950.25;10434987;28;20215;-73
2022/07/22 02:58:35;;;;;;;11.02;9.30;;;;;;;13.95;100.00;96948.34;10434013;28;20191;-73
2022/07/22 03:03:36;;;;;;;10.90;8.73;;;;;;;13.93;100.00;96952.97;10423671;28;20196;-73
2022/07/22 03:08:37;;;;;;;11.30;8.95;;;;;;;14.00;100.00;96961.81;10412079;28;20232;-73
2022/07/22 03:13:37;;;;;;;11.38;9.38;;;;;;;13.95;100.00;96961.53;10410217;28;20216;-74
2022/07/22 03:18:37;;;;;;;11.35;9.00;;;;;;;13.97;100.00;96966.63;10426541;28;20203;-74
2022/07/22 03:23:38;;;;;;;12.15;9.15;;;;;;;13.91;100.00;96976.03;10425600;28;20188;-73
2022/07/22 03:28:38;;;;;;;10.13;8.15;;;;;;;13.90;100.00;96975.22;10444084;28;20538;-74
2022/07/22 03:33:39;;;;;;;10.35;8.77;;;;;;;13.93;100.00;96974.03;10426489;28;20216;-74
2022/07/22 03:38:40;;;;;;;15.98;9.10;;;;;;;13.95;100.00;96972.06;10425413;28;20576;-74
2022/07/22 03:43:41;;;;;;;12.13;8.48;;;;;;;13.90;100.00;96969.09;10426174;28;20190;-74
2022/07/22 03:48:42;;;;;;;10.93;8.27;;;;;;;14.00;100.00;96971.56;10426049;28;20652;-73
2022/07/22 03:53:42;;;;;;;11.68;8.82;;;;;;;13.98;100.00;96968.25;10425170;28;20695;-73
2022/07/22 03:58:43;;;;;;;10.68;8.20;;;;;;;14.11;100.00;96963.25;10424352;28;20183;-73
2022/07/22 04:03:44;;;;;;;13.38;7.45;;;;;;;14.03;100.00;96965.94;10430067;28;20191;-73
2022/07/22 04:08:58;;;;;;;9.43;8.13;;;;;;;13.91;100.00;96968.13;10428178;28;20233;-73
2022/07/22 04:14:00;;;;;;;9.57;8.10;;;;;;;13.98;100.00;96970.88;10433757;28;20695;-74
2022/07/22 04:19:01;;;;;;;12.07;7.68;;;;;;;14.03;100.00;96979.09;10431700;28;20246;-73
2022/07/22 04:24:20;;;;;;;10.55;8.55;;;;;;;14.02;100.00;96974.81;10447903;28;20221;-73
2022/07/22 04:29:22;;;;;;;10.15;7.22;;;;;;;14.15;100.00;96975.09;10429754;28;20184;-73
2022/07/22 04:34:23;;;;;;;9.30;7.60;;;;;;;14.27;100.00;96957.91;10431897;28;20220;-73
2022/07/22 04:39:24;;;;;;;8.75;7.72;;;;;;;14.37;100.00;96956.84;10431355;28;20196;-73
2022/07/22 04:44:30;;;;;;;12.05;8.18;;;;;;;14.56;100.00;96951.13;10431608;28;20609;-73
2022/07/22 04:49:31;;;;;;;10.95;7.35;;;;;;;14.71;100.00;96953.03;10431203;28;20194;-73
2022/07/22 04:54:35;;;;;;;8.85;7.38;;;;;;;14.90;100.00;96952.53;10431681;28;20223;-73
2022/07/22 04:59:36;;;;;;;12.15;7.55;;;;;;;14.97;100.00;96942.91;10430871;28;20606;-73
2022/07/22 05:04:36;;;;;;;9.68;7.55;;;;;;;15.13;100.00;96956.94;10431151;28;20238;-73
2022/07/22 05:09:37;;;;;;;13.32;7.95;;;;;;;15.37;100.00;96947.97;10448562;28;20661;-73
2022/07/22 05:14:37;;;;;;;9.32;7.65;;;;;;;15.58;100.00;96949.91;10432243;28;20216;-74
2022/07/22 05:19:39;;;;;;;8.90;6.93;;;;;;;15.81;100.00;96949.81;10432069;28;20194;-73
2022/07/22 05:24:41;;;;;;;7.65;6.90;;;;;;;16.16;100.00;96930.72;10430617;28;20188;-73
2022/07/22 05:29:42;;;;;;;9.23;6.60;;;;;;;16.39;100.00;96941.94;10430708;28;20663;-73
2022/07/22 05:34:43;;;;;;;7.57;6.78;;;;;;;16.73;100.00;96934.34;10430454;28;20220;-73
2022/07/22 05:39:43;;;;;;;9.45;7.15;;;;;;;16.89;100.00;96943.88;10430215;28;20195;-73
2022/07/22 05:44:44;;;;;;;8.60;6.93;;;;;;;17.34;100.00;96936.47;10451252;28;20537;-73
2022/07/22 05:49:44;;;;;;;9.68;7.75;;;;;;;18.01;100.00;96928.91;10437459;28;20581;-74
2022/07/22 05:54:45;;;;;;;9.25;6.82;;;;;;;18.79;100.00;96923.16;10437414;28;20306;-74
2022/07/22 05:59:46;;;;;;;11.32;7.38;;;;;;;19.30;100.00;96919.06;10436527;28;20188;-74
2022/07/22 06:04:46;;;;;;;8.43;7.30;;;;;;;19.57;100.00;96926.97;10455411;28;20229;-74
2022/07/22 06:09:49;;;;;;;11.32;7.85;;;;;;;19.55;100.00;96919.22;10437294;28;20604;-74
2022/07/22 06:14:49;;;;;;;9.52;7.40;;;;;;;20.17;97.93;96918.81;10436885;28;20230;-75
2022/07/22 06:19:50;;;;;;;11.40;7.68;;;;;;;19.97;95.72;96918.91;10436453;28;20252;-74
2022/07/22 06:24:51;;;;;;;9.07;6.68;;;;;;;20.99;90.65;96900.25;10439478;28;20194;-74
2022/07/22 06:29:52;;;;;;;12.80;7.45;;;;;;;20.35;93.23;96917.28;10440057;28;20195;-74
2022/07/22 06:34:52;;;;;;;7.22;5.85;;;;;;;22.31;84.15;96879.53;10446421;28;20286;-75
2022/07/22 06:39:53;;;;;;;11.40;6.38;;;;;;;21.10;89.25;96905.91;10453190;28;20203;-74
2022/07/22 06:44:57;;;;;;;7.57;6.10;;;;;;;22.11;84.49;96870.97;10436291;28;20184;-74
2022/07/22 06:50:29;;;;;;;7.22;6.32;;;;;;;22.42;81.61;96885.97;10434812;28;20652;-74
2022/07/22 06:55:29;;;;;;;7.43;5.63;;;;;;;24.46;73.10;96825.59;10453235;28;20273;-75
2022/07/22 07:00:48;;;;;;;7.85;5.50;;;;;;;22.93;77.66;96884.53;10426816;28;20679;-75
2022/07/22 07:06:03;;;;;;;7.03;5.20;;;;;;;23.27;75.90;96867.97;10459103;28;20277;-75
2022/07/22 07:11:16;;;;;;;10.30;5.75;;;;;;;24.49;70.08;96814.41;10419198;28;20306;-75
2022/07/22 07:16:16;;;;;;;9.57;5.78;;;;;;;25.15;66.35;96773.56;10433873;28;20231;-75
2022/07/22 07:21:16;;;;;;;8.10;6.18;;;;;;;24.80;68.34;96809.53;10415547;28;20184;-75
2022/07/22 07:26:18;;;;;;;7.35;6.22;;;;;;;24.78;67.02;96792.88;10432577;28;20188;-75
2022/07/22 07:31:18;;;;;;;6.57;5.85;;;;;;;26.08;60.52;96716.38;10432972;28;20210;-75
2022/07/22 07:36:21;;;;;;;8.20;5.22;;;;;;;26.34;59.97;96720.09;10432222;28;20699;-74
2022/07/22 07:41:23;;;;;;;7.80;5.50;;;;;;;25.49;63.66;96778.84;10431927;28;20184;-75
2022/07/22 07:46:25;;;;;;;11.30;5.90;;;;;;;23.96;69.33;96838.63;10430740;28;20194;-75
2022/07/22 07:51:26;;;;;;;5.85;4.53;;;;;;;24.81;67.86;96819.19;10415614;28;20196;-74
2022/07/22 07:56:26;;;;;;;9.82;6.22;;;;;;;24.31;64.43;96757.34;10413112;28;20219;-74
2022/07/22 08:01:27;;;;;;;5.53;5.03;;;;;;;25.99;62.76;96762.50;10429820;28;20190;-74
2022/07/22 08:06:27;;;;;;;8.25;4.80;;;;;;;26.99;60.33;96736.09;10429322;28;20247;-75
2022/07/22 08:11:28;;;;;;;8.40;6.40;;;;;;;23.71;65.95;96774.75;10448363;28;20535;-75
2022/07/22 08:16:48;;;;;;;9.88;5.47;;;;;;;25.90;61.15;96741.72;10448697;28;20438;-74
2022/07/22 08:21:48;;;;;;;6.60;5.32;;;;;;;25.31;61.81;96739.75;10460399;28;20593;-75
2022/07/22 08:27:01;;;;;;;5.70;5.18;;;;;;;25.46;62.90;96769.41;10469008;28;20210;-74
2022/07/22 08:32:03;;;;;;;8.70;5.53;;;;;;;26.42;58.06;96698.13;10470446;28;20341;-75
2022/07/22 08:37:03;;;;;;;6.95;5.45;;;;;;;27.01;56.89;96697.13;10451296;28;20184;-75
2022/07/22 08:42:03;;;;;;;9.50;5.65;;;;;;;26.70;57.51;96702.34;10433730;28;20222;-75
2022/07/22 08:47:04;;;;;;;7.45;5.00;;;;;;;28.12;54.11;96669.13;10455426;28;20194;-75
2022/07/22 08:52:23;;;;;;;8.43;5.28;;;;;;;27.31;54.22;96654.47;10473876;28;20222;-75
2022/07/22 08:57:24;;;;;;;8.18;5.88;;;;;;;27.38;54.63;96679.25;10470357;28;20195;-75
2022/07/22 09:02:26;;;;;;;9.73;5.55;;;;;;;27.15;56.07;96692.06;10486979;28;20727;-75
2022/07/22 09:07:35;;;;;;;8.38;5.55;;;;;;;28.16;53.38;96674.75;10470502;28;20333;-75
2022/07/22 09:12:57;;;;;;;6.30;5.38;;;;;;;29.50;50.01;96630.09;10454213;28;20208;-75
2022/07/22 09:18:19;;;;;;;7.68;5.88;;;;;;;28.73;51.69;96652.06;10471122;28;20184;-75
2022/07/22 09:23:45;;;;;;;7.60;6.03;;;;;;;28.06;51.96;96635.19;10496163;28;20195;-75
2022/07/22 09:28:55;;;;;;;5.88;5.32;;;;;;;30.10;49.26;96634.50;10477670;28;20542;-75
2022/07/22 09:34:04;;;;;;;6.00;5.15;;;;;;;30.13;47.77;96593.41;10455310;28;20215;-75
2022/07/22 09:39:24;;;;;;;10.00;5.88;;;;;;;29.40;48.63;96603.16;10452753;28;20204;-75
2022/07/22 09:44:25;;;;;;;13.88;6.03;;;;;;;29.43;48.03;96572.13;10449824;28;20652;-75
2022/07/22 09:49:35;;;;;;;8.48;5.40;;;;;;;30.15;47.92;96604.72;10455578;28;20551;-76
2022/07/22 09:54:54;;;;;;;8.45;5.78;;;;;;;27.26;51.24;96601.47;10471861;28;20298;-75
2022/07/22 09:59:55;;;;;;;9.10;6.53;;;;;;;24.82;57.07;96668.88;10438297;28;20180;-75
2022/07/22 10:05:03;;;;;;;7.65;6.40;;;;;;;26.85;53.13;96647.06;10449860;28;20191;-74
2022/07/22 10:10:06;;;;;;;7.53;6.43;;;;;;;25.71;54.57;96625.88;10437458;28;20230;-75
2022/07/22 10:15:08;;;;;;;6.40;5.68;;;;;;;28.39;51.09;96651.84;10439082;28;20219;-75
2022/07/22 10:20:10;;;;;;;9.00;6.10;;;;;;;29.87;46.28;96565.84;10451321;28;20265;-74
2022/07/22 10:25:12;;;;;;;6.78;5.50;;;;;;;30.38;45.47;96570.72;10453514;28;20182;-74
2022/07/22 10:30:16;;;;;;;12.70;6.00;;;;;;;29.52;47.74;96600.91;10452031;28;20687;-75
2022/07/22 10:35:21;;;;;;;9.20;5.93;;;;;;;28.53;48.65;96595.47;10441693;22;20599;-57
2022/07/22 10:40:28;;;;;;;8.85;6.30;;;;;;;27.90;49.55;96584.03;10409136;28;20192;-52
2022/07/22 10:45:45;;;;;;;6.80;5.60;;;;;;;29.86;46.73;96585.81;10423608;28;20211;-53
2022/07/22 10:50:55;;;;;;;8.98;6.10;;;;;;;26.70;49.98;96540.28;10425878;28;20628;-55
2022/07/22 10:56:08;;;;;;;7.55;5.70;;;;;;;30.31;45.40;96577.56;10405484;28;20248;-57
2022/07/22 11:01:11;;;;;;;8.90;6.03;;;;;;;30.58;43.41;96539.97;10408857;28;20204;-57
2022/07/22 11:06:30;;;;;;;7.95;5.68;;;;;;;32.10;41.71;96549.03;10426690;28;20188;-58
2022/07/22 11:11:41;;;;;;;9.82;5.72;;;;;;;32.60;41.32;96541.00;10420417;28;20212;-57
2022/07/22 11:16:43;;;;;;;7.68;4.90;;;;;;;32.15;41.45;96532.69;10424821;28;20748;-53
2022/07/22 11:21:49;;;;;;;8.30;6.18;;;;;;;29.43;44.76;96496.56;10425719;28;20702;-57
2022/07/22 11:26:51;;;;;;;6.93;5.20;;;;;;;31.66;41.89;96518.66;10426673;28;20188;-55
2022/07/22 11:31:52;;;;;;;10.23;5.90;;;;;;;31.05;43.34;96525.81;10409561;28;20220;-55
2022/07/22 11:36:53;;;;;;;9.05;5.70;;;;;;;30.56;41.70;96461.03;10444815;28;20293;-57
2022/07/22 11:41:56;;;;;;;7.05;6.10;;;;;;;31.23;41.94;96502.56;10463387;28;20250;-51
2022/07/22 11:47:00;;;;;;;8.52;6.00;;;;;;;31.81;40.22;96458.78;10480567;28;20196;-55
2022/07/22 11:52:02;;;;;;;10.50;6.53;;;;;;;27.97;47.29;96502.97;10472904;28;20222;-53
2022/07/22 11:57:03;;;;;;;8.38;5.57;;;;;;;29.93;45.27;96534.19;10489469;28;20218;-56
2022/07/22 12:02:04;;;;;;;7.30;5.78;;;;;;;31.41;42.35;96506.31;10488922;28;20290;-57
2022/07/22 12:07:06;;;;;;;7.53;5.78;;;;;;;29.95;42.37;96432.06;10487693;28;20248;-56
2022/07/22 12:12:06;;;;;;;7.53;6.40;;;;;;;27.59;47.62;96502.47;10469673;28;20212;-56
2022/07/22 12:17:10;;;;;;;7.45;6.13;;;;;;;29.31;44.52;96469.94;10464709;28;20249;-55
2022/07/22 12:22:13;;;;;;;7.95;5.47;;;;;;;31.10;42.05;96490.56;10464949;28;20286;-58
2022/07/22 12:27:18;;;;;;;8.38;5.63;;;;;;;31.13;40.83;96452.09;10446950;28;20195;-57
2022/07/22 12:32:21;;;;;;;6.88;5.43;;;;;;;29.06;44.59;96474.41;10463213;28;20250;-58
2022/07/22 12:37:22;;;;;;;7.88;5.53;;;;;;;30.90;42.68;96502.47;10460422;28;20733;-56
2022/07/22 12:42:25;;;;;;;6.72;5.25;;;;;;;30.91;41.21;96429.13;10447265;28;20214;-59
2022/07/22 12:47:47;;;;;;;8.82;5.20;;;;;;;32.69;38.91;96441.53;10444963;28;20573;-58
2022/07/22 12:52:49;;;;;;;7.05;5.30;;;;;;;33.77;38.48;96468.03;10445376;28;20238;-57
2022/07/22 12:57:50;;;;;;;7.15;5.07;;;;;;;34.17;36.08;96408.19;10454035;28;20192;-55
2022/07/22 13:02:50;;;;;;;7.55;5.20;;;;;;;30.46;43.18;96474.69;10453155;28;20713;-58
2022/07/22 13:07:53;;;;;;;8.70;5.93;;;;;;;29.96;42.59;96418.28;10453832;28;20292;-56
2022/07/22 13:12:53;;;;;;;7.35;5.30;;;;;;;33.19;38.75;96461.59;10453119;28;20728;-53
2022/07/22 13:17:54;;;;;;;6.20;4.80;;;;;;;34.18;36.42;96417.13;10451883;28;20199;-56
2022/07/22 13:22:54;;;;;;;4.87;4.37;;;;;;;34.55;36.62;96436.72;10453236;28;20308;-58
2022/07/22 13:27:55;;;;;;;8.07;5.10;;;;;;;34.45;35.71;96394.31;10452984;28;20453;-62
2022/07/22 13:32:55;;;;;;;10.13;4.85;;;;;;;34.12;36.17;96384.66;10434936;28;20223;-57
2022/07/22 13:37:56;;;;;;;9.20;5.03;;;;;;;33.84;37.42;96415.94;10451976;28;20235;-57
2022/07/22 13:42:58;;;;;;;10.43;5.70;;;;;;;32.91;37.12;96342.28;10454948;28;20223;-56
2022/07/22 13:47:58;;;;;;;8.27;5.20;;;;;;;32.52;38.44;96376.28;10451671;28;20191;-51
2022/07/22 13:52:59;;;;;;;4.93;4.43;;;;;;;35.79;33.96;96389.94;10450210;28;20223;-58
2022/07/22 13:58:00;;;;;;;7.00;4.88;;;;;;;33.28;36.31;96326.69;10451963;28;20588;-53
2022/07/22 14:03:00;;;;;;;5.85;4.30;;;;;;;37.32;32.41;96406.94;10458716;28;20306;-54
2022/07/22 14:08:00;;;;;;;4.70;4.00;;;;;;;38.32;30.75;96357.44;10467936;28;20191;-60
2022/07/22 14:13:01;;;;;;;5.97;4.30;;;;;;;38.11;30.40;96318.47;10489296;28;20225;-59
2022/07/22 14:18:01;;;;;;;4.43;3.97;;;;;;;38.53;30.40;96361.91;10493496;28;20205;-57
2022/07/22 14:23:02;;;;;;;5.60;3.90;;;;;;;40.13;28.09;96324.47;10454761;28;20349;-55
2022/07/22 14:28:04;;;;;;;5.90;3.80;;;;;;;40.78;27.79;96340.31;10451205;28;20513;-60
2022/07/22 14:33:04;;;;;;;6.30;4.00;;;;;;;39.82;29.05;96339.03;10450654;28;20977;-62
2022/07/22 14:38:04;;;;;;;5.57;3.83;;;;;;;39.80;29.44;96352.31;10450571;28;20254;-60
2022/07/22 14:43:04;;;;;;;4.40;4.00;;;;;;;39.52;27.74;96249.81;10458978;28;20297;-61
2022/07/22 14:48:06;;;;;;;4.83;3.93;;;;;;;39.87;28.15;96294.88;10482985;28;20193;-57
2022/07/22 14:53:06;;;;;;;5.32;3.97;;;;;;;41.55;26.52;96302.03;10470445;28;20211;-59
2022/07/22 14:58:06;;;;;;;5.40;3.58;;;;;;;39.37;29.06;96295.28;10449882;28;20217;-60
2022/07/22 15:03:07;;;;;;;7.43;4.03;;;;;;;39.66;28.11;96279.53;10449920;28;20294;-59
2022/07/22 15:08:08;;;;;;;5.83;3.70;;;;;;;38.19;29.42;96262.84;10449644;28;20446;-58
2022/07/22 15:13:08;;;;;;;4.20;3.78;;;;;;;38.08;30.68;96319.94;10449287;28;20242;-58
2022/07/22 15:18:08;;;;;;;5.10;3.63;;;;;;;40.22;28.49;96322.31;10449563;28;20195;-57
2022/07/22 15:23:09;;;;;;;4.40;4.00;;;;;;;39.43;28.73;96302.09;10442861;28;20225;-59
2022/07/22 15:28:09;;;;;;;6.27;4.00;;;;;;;38.31;29.73;96262.78;10447808;28;20176;-60
2022/07/22 15:33:09;;;;;;;5.93;3.67;;;;;;;38.35;30.13;96274.63;10448548;28;20516;-59
2022/07/22 15:38:10;;;;;;;4.70;3.57;;;;;;;39.34;28.57;96276.03;10448136;28;20230;-57
2022/07/22 15:43:10;;;;;;;4.70;4.13;;;;;;;36.97;31.85;96275.41;10448353;28;20381;-57
2022/07/22 15:48:10;;;;;;;4.82;3.70;;;;;;;37.36;30.41;96254.06;10448128;28;20191;-58
2022/07/22 15:53:11;;;;;;;7.83;3.60;;;;;;;38.13;30.15;96283.34;10447865;28;20219;-59
2022/07/22 16:03:30;;;;;;;4.85;3.72;;;;;;;38.56;29.16;96273.63;10449130;28;20434;-60
2022/07/22 16:08:30;;;;;;;5.53;3.70;;;;;;;37.61;30.15;96269.31;10449204;28;20188;-57
2022/07/22 16:13:31;;;;;;;3.70;3.20;;;;;;;36.49;31.47;96258.56;10448976;28;20233;-52
2022/07/22 16:18:31;;;;;;;6.67;3.20;;;;;;;34.45;34.52;96271.91;10448434;28;20195;-59
2022/07/22 16:23:32;;;;;;;4.35;3.30;;;;;;;33.78;35.75;96282.13;10448652;28;20454;-58
2022/07/22 16:28:32;;;;;;;5.47;3.22;;;;;;;32.29;37.35;96265.09;10447992;28;20282;-56
2022/07/22 16:33:32;;;;;;;8.77;3.10;;;;;;;30.92;39.84;96284.69;10448430;28;20577;-58
2022/07/22 16:38:33;;;;;;;3.40;3.10;;;;;;;31.02;40.06;96342.44;10447679;28;20848;-59
2022/07/22 16:43:33;;;;;;;3.97;2.92;;;;;;;30.66;40.02;96329.47;10448127;28;20895;-57
2022/07/22 16:48:34;;;;;;;3.47;3.17;;;;;;;30.58;40.76;96356.09;10448327;28;20677;-58
2022/07/22 16:53:36;;;;;;;3.80;2.83;;;;;;;30.33;40.83;96353.75;10448163;28;20705;-57
2022/07/22 16:58:37;;;;;;;6.15;2.92;;;;;;;28.98;43.27;96373.34;10450211;28;20184;-58
2022/07/22 17:03:37;;;;;;;5.03;3.13;;;;;;;28.55;44.12;96391.19;10449513;28;20211;-56
2022/07/22 17:08:37;;;;;;;2.92;2.72;;;;;;;28.38;44.46;96405.84;10447803;28;20465;-56
2022/07/22 17:13:39;;;;;;;7.32;2.80;;;;;;;28.70;44.32;96412.66;10447120;28;20219;-51
2022/07/22 17:18:40;;;;;;;3.20;2.90;;;;;;;28.23;45.66;96417.50;10447339;28;20212;-58
2022/07/22 17:23:41;;;;;;;3.90;2.85;;;;;;;27.84;45.20;96395.81;10447513;28;20269;-58
2022/07/22 17:28:41;;;;;;;10.40;3.47;;;;;;;27.54;46.86;96424.47;10447516;28;20203;-58
2022/07/22 17:33:41;;;;;;;6.13;2.87;;;;;;;27.32;47.08;96433.66;10447139;28;20319;-59
2022/07/22 17:38:42;;;;;;;4.13;2.87;;;;;;;27.07;48.50;96455.13;10446828;28;20474;-55
2022/07/22 17:43:42;;;;;;;4.57;2.95;;;;;;;26.86;48.26;96442.50;10454507;28;20442;-58
2022/07/22 17:48:43;;;;;;;4.75;2.80;;;;;;;26.84;49.40;96468.81;10454257;28;20706;-58
2022/07/22 17:53:43;;;;;;;4.68;2.83;;;;;;;26.65;49.45;96465.81;10452895;28;20787;-59
2022/07/22 17:58:44;;;;;;;4.15;2.42;;;;;;;26.60;49.61;96456.94;10454608;28;20195;-54
2022/07/22 18:03:44;;;;;;;5.75;2.83;;;;;;;26.59;48.71;96447.28;10453672;28;20290;-58
2022/07/22 18:08:44;;;;;;;5.83;2.83;;;;;;;26.35;49.34;96450.41;10454328;28;20203;-58
2022/07/22 18:13:45;;;;;;;7.97;3.13;;;;;;;25.99;50.98;96479.81;10453961;28;20482;-56
2022/07/22 18:18:45;;;;;;;4.68;2.97;;;;;;;25.92;51.64;96498.00;10454016;28;20516;-58
2022/07/22 18:23:46;;;;;;;4.70;2.78;;;;;;;25.66;51.67;96478.28;10453220;28;20204;-51
2022/07/22 18:28:46;;;;;;;5.22;3.20;;;;;;;25.44;52.48;96498.78;10453845;28;20192;-53
2022/07/22 18:33:47;;;;;;;6.03;3.30;;;;;;;25.26;53.14;96515.22;10452956;28;20327;-56
2022/07/22 18:38:47;;;;;;;3.75;2.85;;;;;;;25.22;53.85;96525.66;10453078;28;20721;-55
2022/07/22 18:43:47;;;;;;;4.15;3.05;;;;;;;24.49;56.89;96566.13;10453321;28;20584;-54
2022/07/22 18:48:48;;;;;;;5.22;3.08;;;;;;;24.30;57.35;96570.97;10455821;28;20217;-52
2022/07/22 18:53:48;;;;;;;7.05;3.17;;;;;;;23.35;60.28;96602.94;10460292;28;20211;-56
2022/07/22 18:58:50;;;;;;;7.55;4.55;;;;;;;23.26;61.16;96625.75;10469480;28;20183;-52
2022/07/22 19:03:50;;;;;;;4.13;3.40;;;;;;;22.77;62.56;96629.66;10466362;28;20213;-59
2022/07/22 19:08:52;;;;;;;7.75;3.28;;;;;;;22.25;64.83;96656.25;10466707;28;20191;-56
2022/07/22 19:13:53;;;;;;;4.55;3.33;;;;;;;21.60;67.41;96679.25;10452593;28;20211;-57
2022/07/22 19:18:53;;;;;;;5.75;3.20;;;;;;;20.99;69.86;96679.19;10467685;28;20564;-57
2022/07/22 19:23:54;;;;;;;5.45;3.53;;;;;;;20.45;72.90;96688.78;10463350;28;20234;-59
2022/07/22 19:28:54;;;;;;;3.42;3.13;;;;;;;20.56;73.41;96668.59;10469923;28;20195;-60
2022/07/22 19:33:55;;;;;;;10.85;3.97;;;;;;;19.87;75.77;96681.91;10467707;28;20220;-55
2022/07/22 19:38:55;;;;;;;5.90;3.45;;;;;;;19.79;78.14;96688.31;10477943;28;20238;-54
2022/07/22 19:43:56;;;;;;;9.52;3.78;;;;;;;19.70;79.49;96681.59;10521724;22;20267;-59
2022/07/22 19:55:03;;;;;;;8.30;3.42;;;;;;;19.57;81.52;96679.84;10403152;28;20235;-59
2022/07/22 20:00:11;;;;;;;5.35;3.53;;;;;;;19.32;82.70;96699.19;10420045;28;20305;-57
2022/07/22 20:05:17;;;;;;;10.35;4.15;;;;;;;19.19;85.04;96713.34;10452260;28;20195;-59
2022/07/22 20:16:42;;;;;;;9.18;4.38;;;;;;;19.03;86.25;96724.44;10444395;28;20251;-58
2022/07/22 20:27:54;;;;;;;6.88;3.97;;;;;;;18.66;89.74;96730.22;10436697;28;20295;-57
2022/07/22 20:33:20;;;;;;;6.43;4.20;;;;;;;18.64;90.39;96731.47;10412174;28;20243;-59
2022/07/22 20:38:20;;;;;;;6.07;4.07;;;;;;;18.62;90.09;96733.50;10451578;28;20184;-58
2022/07/22 20:43:21;;;;;;;7.28;4.45;;;;;;;18.49;91.49;96745.78;10451188;28;20274;-58
2022/07/22 20:48:21;;;;;;;5.00;3.97;;;;;;;18.38;92.58;96738.44;10451482;28;20196;-58
2022/07/22 20:53:23;;;;;;;5.40;4.10;;;;;;;18.27;94.38;96747.84;10451276;28;20223;-59
2022/07/22 20:58:24;;;;;;;5.57;4.38;;;;;;;18.30;93.99;96765.16;10451246;28;20188;-60
2022/07/22 21:03:24;;;;;;;5.25;3.95;;;;;;;18.27;93.85;96766.41;10450337;28;20204;-60
2022/07/22 21:08:24;;;;;;;6.60;4.30;;;;;;;18.22;94.87;96779.44;10451083;28;20195;-57
2022/07/22 21:13:25;;;;;;;6.63;4.95;;;;;;;18.06;96.32;96780.66;10451686;28;20263;-58
2022/07/22 21:18:25;;;;;;;5.28;4.40;;;;;;;17.82;98.69;96782.00;10458996;28;20560;-58
2022/07/22 21:23:26;;;;;;;6.72;4.82;;;;;;;17.61;100.00;96773.22;10458833;28;20212;-58
2022/07/22 21:28:26;;;;;;;7.53;4.50;;;;;;;17.56;100.00;96772.97;10458940;28;20200;-59
2022/07/22 21:33:28;;;;;;;7.22;4.72;;;;;;;17.53;100.00;96754.00;10458851;28;20220;-59
2022/07/22 21:38:28;;;;;;;4.97;4.45;;;;;;;17.46;100.00;96768.06;10458209;28;20211;-61
2022/07/22 21:43:32;;;;;;;7.25;4.70;;;;;;;17.38;100.00;96776.19;10457962;28;20235;-60
2022/07/22 21:48:33;;;;;;;6.13;4.70;;;;;;;17.28;100.00;96791.63;10459179;28;20203;-60
2022/07/22 21:53:33;;;;;;;5.35;4.45;;;;;;;17.19;100.00;96798.09;10458737;28;20674;-61
2022/07/22 21:58:33;;;;;;;5.53;5.03;;;;;;;17.11;100.00;96796.44;10458795;28;20542;-61
2022/07/22 22:03:34;;;;;;;6.65;4.22;;;;;;;17.09;100.00;96798.44;10456554;28;20303;-60
2022/07/22 22:08:34;;;;;;;6.82;5.00;;;;;;;17.01;100.00;96807.34;10457061;28;20554;-61
2022/07/22 22:13:34;;;;;;;6.10;4.78;;;;;;;16.92;100.00;96797.94;10456445;28;20235;-60
2022/07/22 22:18:35;;;;;;;9.30;4.93;;;;;;;16.91;100.00;96812.19;10456508;28;20192;-58
2022/07/22 22:23:35;;;;;;;5.25;4.65;;;;;;;16.92;100.00;96793.47;10456369;28;20208;-60
2022/07/22 22:28:36;;;;;;;11.25;4.85;;;;;;;16.80;100.00;96778.28;10465083;28;20192;-61
2022/07/22 22:33:36;;;;;;;5.38;4.88;;;;;;;16.63;100.00;96786.56;10456029;28;20219;-59
2022/07/22 22:38:36;;;;;;;6.30;4.30;;;;;;;16.55;100.00;96782.22;10455722;28;20192;-57
2022/07/22 22:43:37;;;;;;;7.25;4.70;;;;;;;16.39;100.00;96778.03;10455616;28;20255;-59
2022/07/22 22:48:37;;;;;;;5.55;4.75;;;;;;;16.22;100.00;96763.47;10455296;28;20226;-55
2022/07/22 22:53:37;;;;;;;5.53;4.85;;;;;;;16.29;100.00;96747.63;10455313;28;20228;-58
2022/07/22 22:58:38;;;;;;;5.18;4.68;;;;;;;16.17;100.00;96734.13;10455019;28;20202;-57
2022/07/22 23:03:38;;;;;;;5.55;5.03;;;;;;;16.10;100.00;96739.34;10454265;28;20210;-56
2022/07/22 23:08:39;;;;;;;4.95;4.50;;;;;;;16.01;100.00;96730.75;10454920;28;20218;-60
2022/07/22 23:13:39;;;;;;;5.90;4.55;;;;;;;15.93;100.00;96732.72;10454194;28;20228;-59
2022/07/22 23:18:40;;;;;;;5.05;4.55;;;;;;;15.91;100.00;96737.34;10454465;28;20206;-57
2022/07/22 23:23:40;;;;;;;5.68;5.18;;;;;;;15.81;100.00;96741.13;10453969;28;20213;-60
2022/07/22 23:28:40;;;;;;;9.70;4.88;;;;;;;15.66;100.00;96725.31;10453919;28;20191;-60
2022/07/22 23:33:41;;;;;;;5.30;4.80;;;;;;;15.70;100.00;96720.47;10453559;28;20674;-60
2022/07/22 23:38:41;;;;;;;5.55;4.47;;;;;;;15.72;100.00;96715.00;10452304;28;20539;-60